Terminal Aerodrome Forecast
Issued by NWS

Home | Current Version | Previous Version | Text Only | Print | Product List | Glossary Off
Versions: 1 2 3 4 5 6 7 8 9 10 11 12 13 14 15 16 17 18 19 20 21 22 23 24

000
FTUS43 KTOP 251400 AAB
TAFMHK
TAF AMD
KMHK 251445Z 2515/2612 00000KT 1/4SM FG VV002
      TEMPO 2515/2516 3SM BR SCT002
     FM251600 08005KT P6SM SKC
      TEMPO 2516/2517 5SM BR=

USA.gov is the U.S. government's official web portal to all federal, state and local government web resources and services.